createdAt,value
2023-03-21T00:01:59.677Z,68
2023-03-21T00:04:44.765Z,69
2023-03-21T00:07:06.676Z,69
2023-03-21T00:09:39.821Z,70
2023-03-21T00:12:17.488Z,72
2023-03-21T00:14:51.040Z,69
2023-03-21T00:17:21.444Z,73
2023-03-21T00:19:53.696Z,68
2023-03-21T00:22:24.779Z,70
2023-03-21T00:24:55.678Z,72
2023-03-21T00:27:47.460Z,71
2023-03-21T00:29:59.583Z,66
2023-03-21T00:32:30.558Z,74
2023-03-21T00:35:26.014Z,76
2023-03-21T00:37:39.684Z,81
2023-03-21T00:40:19.636Z,84
2023-03-21T00:42:41.962Z,84
2023-03-21T00:45:17.832Z,80
2023-03-21T00:47:49.400Z,83
2023-03-21T00:50:21.956Z,71
2023-03-21T00:52:56.299Z,80
2023-03-21T00:55:29.767Z,73
2023-03-21T00:58:02.626Z,72
2023-03-21T01:00:34.812Z,76
2023-03-21T01:03:23.505Z,75
2023-03-21T01:05:48.026Z,64
2023-03-21T01:08:31.345Z,64
2023-03-21T01:11:00.458Z,68
2023-03-21T01:13:44.150Z,64
2023-03-21T01:16:11.238Z,64
2023-03-21T01:18:42.320Z,71
2023-03-21T01:21:13.025Z,68
2023-03-21T01:23:47.718Z,72
2023-03-21T01:26:20.518Z,68
2023-03-21T01:28:51.875Z,68
2023-03-21T01:31:23.293Z,67
2023-03-21T01:33:55.661Z,68
2023-03-21T01:36:27.194Z,68
2023-03-21T01:39:01.232Z,70
2023-03-21T01:41:43.219Z,70
2023-03-21T01:44:05.080Z,70
2023-03-21T01:46:49.520Z,72
2023-03-21T01:49:11.246Z,77
2023-03-21T01:51:43.719Z,68
2023-03-21T01:54:14.858Z,72
2023-03-21T01:56:48.576Z,64
2023-03-21T01:59:20.000Z,69
2023-03-21T02:02:00.044Z,71
2023-03-21T02:04:31.268Z,66
2023-03-21T02:07:02.192Z,68
2023-03-21T02:09:33.337Z,70
2023-03-21T02:12:08.451Z,68
2023-03-21T02:14:42.036Z,72
2023-03-21T02:17:12.909Z,73
2023-03-21T02:19:52.601Z,72
2023-03-21T02:22:15.754Z,76
2023-03-21T02:24:54.434Z,76
2023-03-21T02:27:19.265Z,69
2023-03-21T02:29:51.192Z,73
2023-03-21T02:32:36.476Z,72
2023-03-21T02:35:00.875Z,76
2023-03-21T02:37:38.254Z,72
2023-03-21T02:40:08.112Z,80
2023-03-21T02:42:39.277Z,69
2023-03-21T02:45:08.321Z,77
2023-03-21T02:47:39.671Z,70
2023-03-21T02:50:10.795Z,68
2023-03-21T02:52:40.276Z,72
2023-03-21T02:55:17.546Z,72
2023-03-21T02:57:52.949Z,71
2023-03-21T03:00:24.434Z,76
2023-03-21T03:03:06.523Z,75
2023-03-21T03:05:27.263Z,71
2023-03-21T03:07:58.171Z,78
2023-03-21T03:10:29.160Z,71
2023-03-21T03:13:00.814Z,78
2023-03-21T03:15:32.636Z,72
2023-03-21T03:18:03.055Z,70
2023-03-21T03:20:34.100Z,68
2023-03-21T03:23:05.787Z,70
2023-03-21T03:25:43.136Z,68
2023-03-21T03:28:12.027Z,75
2023-03-21T03:30:57.348Z,68
2023-03-21T03:33:19.117Z,72
2023-03-21T03:35:59.006Z,69
2023-03-21T03:38:21.156Z,72
2023-03-21T03:40:52.000Z,71
2023-03-21T03:43:23.442Z,80
2023-03-21T03:45:54.635Z,68
2023-03-21T03:48:25.886Z,70
2023-03-21T03:50:57.055Z,72
2023-03-21T03:53:32.775Z,72
2023-03-21T03:56:03.591Z,70
2023-03-21T03:58:44.778Z,73
2023-03-21T04:01:09.163Z,68
2023-03-21T04:03:49.681Z,76
2023-03-21T04:06:18.047Z,71
2023-03-21T04:08:48.745Z,72
2023-03-21T04:11:21.537Z,72
2023-03-21T04:13:52.318Z,66
2023-03-21T04:16:23.750Z,68
2023-03-21T04:19:00.723Z,65
2023-03-21T04:21:31.490Z,65
2023-03-21T04:24:02.391Z,68
2023-03-21T04:26:33.455Z,72
2023-03-21T04:29:04.509Z,73
2023-03-21T04:31:39.054Z,68
2023-03-21T04:34:09.858Z,71
2023-03-21T04:36:45.058Z,69
2023-03-21T04:39:25.006Z,71
2023-03-21T04:41:57.296Z,72
2023-03-21T04:44:30.356Z,71
2023-03-21T04:47:01.977Z,66
2023-03-21T04:49:33.452Z,72
2023-03-21T04:52:05.754Z,71
2023-03-21T04:54:37.186Z,72
2023-03-21T04:57:10.385Z,67
2023-03-21T04:59:41.208Z,72
2023-03-21T05:02:11.752Z,73
2023-03-21T05:04:42.502Z,72
2023-03-21T05:07:13.062Z,71
2023-03-21T05:09:44.080Z,73
2023-03-21T05:12:15.249Z,69
2023-03-21T05:14:49.526Z,74
2023-03-21T05:17:20.321Z,79
2023-03-21T05:19:52.235Z,72
2023-03-21T05:22:23.160Z,72
2023-03-21T05:24:54.191Z,72
2023-03-21T05:27:25.301Z,74
2023-03-21T05:29:56.911Z,74
2023-03-21T05:32:27.715Z,79
2023-03-21T05:34:58.487Z,79
2023-03-21T05:37:29.211Z,77
2023-03-21T05:39:59.714Z,73
2023-03-21T05:42:30.659Z,69
2023-03-21T05:45:01.343Z,74
2023-03-21T05:47:32.408Z,73
2023-03-21T05:50:03.407Z,72
2023-03-21T05:52:33.837Z,74
2023-03-21T05:55:04.672Z,75
2023-03-21T05:57:35.905Z,72
2023-03-21T06:00:07.069Z,76
2023-03-21T06:02:37.516Z,70
2023-03-21T06:05:08.152Z,77
2023-03-21T06:07:38.832Z,74
2023-03-21T06:10:09.440Z,81
2023-03-21T06:12:41.211Z,84
2023-03-21T06:15:12.231Z,76
2023-03-21T06:17:43.122Z,76
2023-03-21T06:20:14.252Z,76
2023-03-21T06:22:44.810Z,72
2023-03-21T06:25:15.744Z,77
2023-03-21T06:27:48.050Z,69
2023-03-21T06:30:22.418Z,68
2023-03-21T06:32:53.087Z,69
2023-03-21T06:35:24.024Z,68
2023-03-21T06:37:54.368Z,68
2023-03-21T06:40:28.058Z,70
2023-03-21T06:42:58.933Z,80
2023-03-21T06:45:29.367Z,60
2023-03-21T06:47:59.888Z,65
2023-03-21T06:50:30.904Z,65
2023-03-21T06:53:02.282Z,60
2023-03-21T06:55:33.284Z,61
2023-03-21T06:58:04.178Z,67
2023-03-21T07:00:35.532Z,63
2023-03-21T07:03:11.662Z,60
2023-03-21T07:05:45.526Z,63
2023-03-21T07:08:19.892Z,61
2023-03-21T07:10:53.824Z,57
2023-03-21T07:13:25.311Z,67
2023-03-21T07:15:56.535Z,60
2023-03-21T07:18:27.895Z,63
2023-03-21T07:21:04.687Z,59
2023-03-21T07:23:36.495Z,60
2023-03-21T07:26:07.379Z,56
2023-03-21T07:28:39.708Z,60
2023-03-21T07:31:11.932Z,62
2023-03-21T07:33:42.765Z,64
2023-03-21T07:36:14.546Z,60
2023-03-21T07:38:46.403Z,65
2023-03-21T07:41:17.865Z,56
2023-03-21T07:43:49.298Z,61
2023-03-21T07:46:20.019Z,64
2023-03-21T07:48:50.443Z,65
2023-03-21T07:51:24.048Z,61
2023-03-21T07:53:57.418Z,60
2023-03-21T07:56:28.210Z,60
2023-03-21T07:59:00.492Z,62
2023-03-21T08:01:35.267Z,68
2023-03-21T08:04:06.268Z,60
2023-03-21T08:06:36.932Z,66
2023-03-21T08:09:10.010Z,57
2023-03-21T08:11:40.751Z,56
2023-03-21T08:14:11.202Z,60
2023-03-21T08:16:41.962Z,59
2023-03-21T08:19:13.409Z,51
2023-03-21T08:21:44.160Z,56
2023-03-21T08:24:14.627Z,53
2023-03-21T08:26:45.677Z,59
2023-03-21T08:29:19.536Z,54
2023-03-21T08:31:51.051Z,59
2023-03-21T08:34:21.662Z,55
2023-03-21T08:36:52.442Z,53
2023-03-21T08:39:24.763Z,51
2023-03-21T08:41:59.786Z,60
2023-03-21T08:44:30.675Z,56
2023-03-21T08:47:00.782Z,53
2023-03-21T08:49:31.162Z,51
2023-03-21T08:52:01.702Z,52
2023-03-21T08:54:34.209Z,52
2023-03-21T08:57:05.350Z,51
2023-03-21T08:59:35.506Z,56
2023-03-21T09:02:05.606Z,62
2023-03-21T09:04:38.767Z,51
2023-03-21T09:07:11.958Z,50
2023-03-21T09:09:41.943Z,56
2023-03-21T09:12:11.907Z,52
2023-03-21T09:14:42.374Z,55
2023-03-21T09:17:14.550Z,48
2023-03-21T09:19:43.587Z,51
2023-03-21T09:22:14.819Z,53
2023-03-21T09:24:45.149Z,48
2023-03-21T09:29:53.934Z,46
2023-03-21T09:32:24.186Z,52
2023-03-21T09:34:58.373Z,51
2023-03-21T09:37:28.369Z,52
2023-03-21T09:39:57.442Z,50
2023-03-21T09:42:31.839Z,56
2023-03-21T09:45:08.819Z,49
2023-03-21T09:47:45.788Z,51
2023-03-21T09:50:18.548Z,56
2023-03-21T09:52:48.876Z,52
2023-03-21T09:55:23.723Z,48
2023-03-21T09:58:01.941Z,47
2023-03-21T10:03:06.187Z,48
2023-03-21T10:05:37.796Z,49
2023-03-21T10:08:14.183Z,46
2023-03-21T10:10:45.549Z,44
2023-03-21T10:13:14.939Z,47
2023-03-21T10:15:46.407Z,48
2023-03-21T10:18:27.910Z,44
2023-03-21T10:20:59.728Z,49
2023-03-21T10:23:31.135Z,46
2023-03-21T10:26:02.232Z,51
2023-03-21T10:28:42.523Z,44
2023-03-21T10:31:08.190Z,49
2023-03-21T10:33:38.747Z,48
2023-03-21T10:36:11.017Z,43
2023-03-21T10:38:45.243Z,48
2023-03-21T10:41:16.147Z,44
2023-03-21T10:43:50.600Z,46
2023-03-21T10:46:24.380Z,43
2023-03-21T10:48:55.648Z,48
2023-03-21T10:51:26.380Z,45
2023-03-21T10:53:58.975Z,52
2023-03-21T10:56:29.351Z,43
2023-03-21T10:59:01.858Z,48
2023-03-21T11:01:32.457Z,44
2023-03-21T11:04:05.831Z,45
2023-03-21T11:06:41.015Z,46
2023-03-21T11:09:11.619Z,45
2023-03-21T11:11:43.792Z,43
2023-03-21T11:14:14.036Z,50
2023-03-21T11:16:46.270Z,44
2023-03-21T11:19:16.907Z,48
2023-03-21T11:21:49.551Z,49
2023-03-21T11:24:20.451Z,47
2023-03-21T11:26:50.426Z,40
2023-03-21T11:29:20.983Z,45
2023-03-21T11:31:51.851Z,44
2023-03-21T11:34:26.546Z,36
2023-03-21T11:36:57.114Z,41
2023-03-21T11:39:28.417Z,51
2023-03-21T11:41:58.705Z,40
2023-03-21T11:44:29.316Z,36
2023-03-21T11:47:00.129Z,44
2023-03-21T11:49:30.866Z,36
2023-03-21T11:52:02.262Z,40
2023-03-21T11:54:32.668Z,40
2023-03-21T11:57:02.940Z,37
2023-03-21T11:59:33.252Z,33
2023-03-21T12:02:04.026Z,39
2023-03-21T12:04:34.902Z,36
2023-03-21T12:07:11.366Z,32
2023-03-21T12:09:44.714Z,43
2023-03-21T12:12:20.193Z,44
2023-03-21T12:14:48.189Z,43
2023-03-21T12:17:18.300Z,39
2023-03-21T12:19:48.380Z,37
2023-03-21T12:22:23.591Z,40
2023-03-21T12:24:54.478Z,44
2023-03-21T12:27:24.902Z,43
2023-03-21T12:29:55.378Z,38
2023-03-21T12:32:35.675Z,37
2023-03-21T12:35:08.646Z,33
2023-03-21T12:37:38.947Z,36
2023-03-21T12:40:15.691Z,42
2023-03-21T12:42:46.722Z,35
2023-03-21T12:45:18.149Z,32
2023-03-21T12:47:50.228Z,35
2023-03-21T12:50:20.899Z,34
2023-03-21T12:52:51.712Z,39
2023-03-21T12:55:22.176Z,35
2023-03-21T12:57:57.349Z,31
2023-03-21T13:00:23.487Z,35
2023-03-21T13:02:54.121Z,32
2023-03-21T13:05:24.973Z,41
2023-03-21T13:07:55.084Z,40
2023-03-21T13:10:25.947Z,37
2023-03-21T13:12:58.616Z,35
2023-03-21T13:15:27.759Z,35
2023-03-21T13:17:59.805Z,36
2023-03-21T13:20:30.955Z,32
2023-03-21T13:23:02.060Z,32
2023-03-21T13:25:32.424Z,33
2023-03-21T13:28:07.794Z,29
2023-03-21T13:30:38.226Z,31
2023-03-21T13:33:08.626Z,31
2023-03-21T13:35:39.841Z,28
2023-03-21T13:38:10.600Z,26
2023-03-21T13:40:41.590Z,28
2023-03-21T13:43:13.954Z,30
2023-03-21T13:45:46.151Z,32
2023-03-21T13:48:16.926Z,33
2023-03-21T13:50:48.446Z,33
2023-03-21T13:53:19.218Z,36
2023-03-21T13:55:50.112Z,29
2023-03-21T13:58:23.749Z,36
2023-03-21T14:00:55.728Z,37
2023-03-21T14:03:26.380Z,37
2023-03-21T14:05:57.601Z,32
2023-03-21T14:08:37.052Z,32
2023-03-21T14:11:00.848Z,38
2023-03-21T14:13:35.009Z,36
2023-03-21T14:16:04.646Z,30
2023-03-21T14:18:52.698Z,29
2023-03-21T14:21:09.359Z,34
2023-03-21T14:23:42.831Z,29
2023-03-21T14:26:14.380Z,35
2023-03-21T14:28:46.458Z,29
2023-03-21T14:31:15.498Z,31
2023-03-21T14:33:47.631Z,35
2023-03-21T14:36:19.662Z,29
2023-03-21T14:38:49.858Z,38
2023-03-21T14:41:20.709Z,33
2023-03-21T14:43:52.433Z,36
2023-03-21T14:46:23.165Z,32
2023-03-21T14:48:53.785Z,33
2023-03-21T14:51:37.210Z,28
2023-03-21T14:54:07.604Z,28
2023-03-21T14:56:41.489Z,30
2023-03-21T14:59:14.488Z,41
2023-03-21T15:01:44.799Z,33
2023-03-21T15:04:15.428Z,41
2023-03-21T15:06:46.326Z,30
2023-03-21T15:09:17.044Z,31
2023-03-21T15:11:51.532Z,27
2023-03-21T15:14:21.764Z,25
2023-03-21T15:16:53.879Z,28
2023-03-21T15:19:25.087Z,25
2023-03-21T15:21:57.242Z,24
2023-03-21T15:24:28.238Z,28
2023-03-21T15:27:00.876Z,29
2023-03-21T15:29:33.373Z,36
2023-03-21T15:32:03.451Z,33
2023-03-21T15:34:36.702Z,29
2023-03-21T15:37:07.079Z,28
2023-03-21T15:39:39.214Z,26
2023-03-21T15:42:09.349Z,28
2023-03-21T15:44:41.226Z,26
2023-03-21T15:47:12.736Z,27
2023-03-21T15:49:43.687Z,27
2023-03-21T15:52:17.381Z,27
2023-03-21T15:54:49.086Z,28
2023-03-21T15:57:19.941Z,36
2023-03-21T15:59:51.141Z,33
2023-03-21T16:02:21.407Z,37
2023-03-21T16:04:51.945Z,35
2023-03-21T16:07:24.304Z,34
2023-03-21T16:09:54.856Z,33
2023-03-21T16:12:25.468Z,39
2023-03-21T16:14:55.815Z,40
2023-03-21T16:17:28.689Z,39
2023-03-21T16:20:00.856Z,43
2023-03-21T16:22:31.332Z,41
2023-03-21T16:25:03.540Z,39
2023-03-21T16:27:33.834Z,41
2023-03-21T16:30:06.250Z,43
2023-03-21T16:32:41.375Z,48
2023-03-21T16:35:23.019Z,48
2023-03-21T16:37:53.626Z,44
2023-03-21T16:40:24.191Z,45
2023-03-21T16:42:54.688Z,44
2023-03-21T16:45:24.894Z,57
2023-03-21T16:48:03.917Z,61
2023-03-21T16:50:35.698Z,61
2023-03-21T16:53:06.076Z,57
2023-03-21T16:55:36.575Z,49
2023-03-21T16:58:11.462Z,50
2023-03-21T17:00:42.056Z,55
2023-03-21T17:03:12.477Z,51
2023-03-21T17:05:47.109Z,47
2023-03-21T17:08:19.307Z,55
2023-03-21T17:10:52.789Z,54
2023-03-21T17:13:26.508Z,48
2023-03-21T17:15:57.439Z,72
2023-03-21T17:18:27.740Z,81
2023-03-21T17:20:58.608Z,52
2023-03-21T17:23:28.615Z,48
2023-03-21T17:25:59.839Z,48
2023-03-21T17:28:30.169Z,52
2023-03-21T17:30:59.811Z,58
2023-03-21T17:33:31.630Z,56
2023-03-21T17:36:02.093Z,61
2023-03-21T17:38:32.491Z,57
2023-03-21T17:41:02.941Z,60
2023-03-21T17:43:33.872Z,56
2023-03-21T17:46:04.381Z,60
2023-03-21T17:48:36.267Z,60
2023-03-21T17:51:14.960Z,62
2023-03-21T17:53:47.262Z,62
2023-03-21T17:56:17.709Z,57
2023-03-21T17:58:53.453Z,63
2023-03-21T18:01:24.311Z,59
2023-03-21T18:03:54.702Z,57
2023-03-21T18:06:25.447Z,60
2023-03-21T18:08:56.135Z,53
2023-03-21T18:11:26.781Z,53
2023-03-21T18:14:15.644Z,55
2023-03-21T18:16:36.692Z,56
2023-03-21T18:19:10.693Z,57
2023-03-21T18:21:44.591Z,59
2023-03-21T18:24:12.951Z,56
2023-03-21T18:26:47.795Z,58
2023-03-21T18:32:04.714Z,56
2023-03-21T18:34:21.344Z,57
2023-03-21T18:36:55.329Z,60
2023-03-21T18:39:26.185Z,59
2023-03-21T18:42:00.138Z,59
2023-03-21T18:44:31.173Z,61
2023-03-21T18:47:01.434Z,61
2023-03-21T18:50:12.318Z,64
2023-03-21T18:52:04.342Z,60
2023-03-21T18:54:35.274Z,63
2023-03-21T18:57:39.760Z,57
2023-03-21T18:59:40.024Z,59
2023-03-21T19:02:14.853Z,67
2023-03-21T19:04:47.055Z,68
2023-03-21T19:07:18.184Z,65
2023-03-21T19:10:17.297Z,57
2023-03-21T19:12:21.612Z,60
2023-03-21T19:14:52.013Z,60
2023-03-21T19:19:53.485Z,57
2023-03-21T19:22:24.720Z,56
2023-03-21T19:24:56.547Z,57
2023-03-21T19:27:36.301Z,64
2023-03-21T19:30:14.199Z,65
2023-03-21T19:32:42.686Z,68
2023-03-21T19:35:16.838Z,70
2023-03-21T19:37:46.468Z,65
2023-03-21T19:40:16.884Z,64
2023-03-21T19:42:47.360Z,62
2023-03-21T19:45:21.501Z,64
2023-03-21T19:47:53.250Z,64
2023-03-21T19:51:00.370Z,73
2023-03-21T19:52:56.610Z,76
2023-03-21T19:55:27.417Z,68
2023-03-21T19:58:02.133Z,65
2023-03-21T20:00:33.589Z,64
2023-03-21T20:03:06.004Z,59
2023-03-21T20:05:35.161Z,63
2023-03-21T20:08:10.566Z,61
2023-03-21T20:10:37.398Z,64
2023-03-21T20:13:07.773Z,63
2023-03-21T20:15:45.810Z,59
2023-03-21T20:18:20.446Z,62
2023-03-21T20:20:54.289Z,64
2023-03-21T20:23:33.733Z,64
2023-03-21T20:26:09.297Z,68
2023-03-21T20:28:55.836Z,68
2023-03-21T20:31:17.867Z,76
2023-03-21T20:33:46.204Z,75
2023-03-21T20:36:37.950Z,81
2023-03-21T20:38:46.286Z,79
2023-03-21T20:41:16.659Z,82
2023-03-21T20:46:33.048Z,80
2023-03-21T20:49:03.308Z,82
2023-03-21T20:54:06.930Z,87
2023-03-21T20:56:50.365Z,95
2023-03-21T20:59:27.434Z,92
2023-03-21T21:01:53.905Z,81
2023-03-21T21:04:38.325Z,84
2023-03-21T21:06:58.834Z,83
2023-03-21T21:09:29.554Z,83
2023-03-21T21:12:06.811Z,99
2023-03-21T21:14:31.369Z,86
2023-03-21T21:17:17.541Z,89
2023-03-21T21:19:35.402Z,87
2023-03-21T21:22:06.763Z,89
2023-03-21T21:24:38.064Z,88
2023-03-21T21:27:11.558Z,89
2023-03-21T21:29:43.843Z,88
2023-03-21T21:32:12.435Z,94
2023-03-21T21:34:42.574Z,96
2023-03-21T21:37:12.426Z,93
2023-03-21T21:39:41.185Z,97
2023-03-21T21:42:12.205Z,88
2023-03-21T21:44:42.520Z,88
2023-03-21T21:47:15.753Z,88
2023-03-21T21:49:47.385Z,89
2023-03-21T21:52:19.468Z,88
2023-03-21T21:54:54.342Z,91
2023-03-21T21:57:25.329Z,90
2023-03-21T21:59:55.445Z,88
2023-03-21T22:02:26.525Z,89
2023-03-21T22:04:56.825Z,89
2023-03-21T22:07:30.268Z,88
2023-03-21T22:10:00.876Z,92
2023-03-21T22:12:33.281Z,92
2023-03-21T22:15:03.523Z,89
2023-03-21T22:17:36.947Z,88
2023-03-21T22:20:09.742Z,91
2023-03-21T22:22:40.122Z,100
2023-03-21T22:25:13.532Z,89
2023-03-21T22:27:43.946Z,88
2023-03-21T22:30:14.287Z,93
2023-03-21T22:32:48.299Z,84
2023-03-21T22:35:16.143Z,96
2023-03-21T22:37:46.455Z,84
2023-03-21T22:40:17.062Z,92
2023-03-21T22:42:47.654Z,92
2023-03-21T22:45:20.760Z,84
2023-03-21T22:47:55.201Z,84
2023-03-21T22:50:25.738Z,81
2023-03-21T22:52:58.976Z,79
2023-03-21T22:55:29.752Z,88
2023-03-21T22:57:59.824Z,82
2023-03-21T23:00:31.224Z,80
2023-03-21T23:03:01.534Z,84
2023-03-21T23:05:36.388Z,85
2023-03-21T23:08:06.374Z,77
2023-03-21T23:10:37.305Z,87
2023-03-21T23:13:10.264Z,85
2023-03-21T23:15:41.615Z,81
2023-03-21T23:18:11.927Z,72
2023-03-21T23:20:42.872Z,82
2023-03-21T23:23:12.844Z,84
2023-03-21T23:25:42.991Z,80
2023-03-21T23:28:16.555Z,80
2023-03-21T23:30:47.156Z,91
2023-03-21T23:33:18.457Z,88
2023-03-21T23:35:49.154Z,92
2023-03-21T23:38:21.122Z,81
2023-03-21T23:40:51.783Z,84
2023-03-21T23:43:26.904Z,76
2023-03-21T23:45:57.662Z,84
2023-03-21T23:48:27.626Z,78
2023-03-21T23:50:59.020Z,84
2023-03-21T23:53:29.631Z,91
2023-03-21T23:55:59.973Z,84
2023-03-21T23:58:31.105Z,87
